world map with WYA marked

WYA - Airport

This information may not be accurate or current and is not valid for navigation or flight planning. No warranty of fitness for any purpose is made or implied.

flag of South Australiaflag of Australia

Donate via PayPal

Additional information is available on the NEW Great Circle Mapper

Location
City:  Whyalla, South Australia, Australia
ICAO / IATA:YWHA / WYA

Details
Type:Airport (Aerodrome, Airfield)
Latitude:33°03'32"S (-33.058888)
Longitude:137°30'52"E (137.514444)
Datum:WGS 1984
Elevation:41 ft (12 m)
Runways:2
Longest:5531 × 148 ft (1686 × 45 m)

Time
Timezone:UTC+9:30 (DST+12:30)
Local Time:

Weather
METAR:YWHA  041400Z AUTO 17015KT 9999 // BKN017 20/17 Q1014
TAF:YWHA  (expired)

Related Locations
Nearby:
Farthest:FLW: 11668 mi / 18777 km
Flores Island [Santa Cruz], 20, PT

Find:

   beyond  
but within

Other Information
Maps:
Sources:

  


 


Great Circle Mapper   Great Circle Mapper
Great Circle Mapper FAQ   Great Circle Mapper FAQ
  Karl's Home Page
KLSē   KLSē Home
   GC on Facebook
Airlines of the World   Airlines of the World
Donate via PayPal


Copyright © 2004-2019, Karl L. Swartz. All rights reserved.
All trademarks mentioned herein belong to their respective owners.

Please see credits for attribution and copyright information.

Karl Swartz <karl@kls2.com>
  Powered by FreeBSD
Valid HTML 4.01!
Labeled with ICRA
hCard Microformat
Geo Microformat